sensor_id;sensor_type;location;lat;lon;timestamp;P1;durP1;ratioP1;P2;durP2;ratioP2
17451;SDS011;8843;48.838;9.324;2023-04-05T00:02:22;4.10;;;3.70;;
17451;SDS011;8843;48.838;9.324;2023-04-05T00:04:53;4.30;;;3.30;;
17451;SDS011;8843;48.838;9.324;2023-04-05T00:07:22;5.80;;;3.50;;
17451;SDS011;8843;48.838;9.324;2023-04-05T00:09:50;4.60;;;3.70;;
17451;SDS011;8843;48.838;9.324;2023-04-05T00:12:17;6.47;;;4.10;;
17451;SDS011;8843;48.838;9.324;2023-04-05T00:14:44;5.37;;;4.07;;
17451;SDS011;8843;48.838;9.324;2023-04-05T00:17:11;5.77;;;3.80;;
17451;SDS011;8843;48.838;9.324;2023-04-05T00:19:38;6.67;;;3.97;;
17451;SDS011;8843;48.838;9.324;2023-04-05T00:22:06;5.03;;;3.60;;
17451;SDS011;8843;48.838;9.324;2023-04-05T00:24:36;6.43;;;4.10;;
17451;SDS011;8843;48.838;9.324;2023-04-05T00:27:07;4.43;;;3.80;;
17451;SDS011;8843;48.838;9.324;2023-04-05T00:29:34;5.53;;;3.33;;
17451;SDS011;8843;48.838;9.324;2023-04-05T00:32:01;5.50;;;3.17;;
17451;SDS011;8843;48.838;9.324;2023-04-05T00:34:28;4.83;;;3.33;;
17451;SDS011;8843;48.838;9.324;2023-04-05T00:36:56;5.20;;;3.80;;
17451;SDS011;8843;48.838;9.324;2023-04-05T00:39:23;4.67;;;4.17;;
17451;SDS011;8843;48.838;9.324;2023-04-05T00:41:52;4.10;;;3.37;;
17451;SDS011;8843;48.838;9.324;2023-04-05T00:44:18;5.83;;;4.13;;
17451;SDS011;8843;48.838;9.324;2023-04-05T00:46:45;3.73;;;3.33;;
17451;SDS011;8843;48.838;9.324;2023-04-05T00:49:12;4.13;;;3.73;;
17451;SDS011;8843;48.838;9.324;2023-04-05T00:51:39;6.07;;;3.40;;
17451;SDS011;8843;48.838;9.324;2023-04-05T00:54:07;4.20;;;3.40;;
17451;SDS011;8843;48.838;9.324;2023-04-05T00:56:34;4.40;;;3.47;;
17451;SDS011;8843;48.838;9.324;2023-04-05T00:59:02;4.10;;;3.53;;
17451;SDS011;8843;48.838;9.324;2023-04-05T01:01:29;6.33;;;3.43;;
17451;SDS011;8843;48.838;9.324;2023-04-05T01:04:02;6.10;;;3.70;;
17451;SDS011;8843;48.838;9.324;2023-04-05T01:06:35;7.03;;;3.90;;
17451;SDS011;8843;48.838;9.324;2023-04-05T01:09:23;9.67;;;4.20;;
17451;SDS011;8843;48.838;9.324;2023-04-05T01:12:03;5.17;;;3.83;;
17451;SDS011;8843;48.838;9.324;2023-04-05T01:14:38;5.07;;;3.60;;
17451;SDS011;8843;48.838;9.324;2023-04-05T01:17:09;4.23;;;3.83;;
17451;SDS011;8843;48.838;9.324;2023-04-05T01:19:36;4.77;;;3.70;;
17451;SDS011;8843;48.838;9.324;2023-04-05T01:22:18;4.97;;;3.33;;
17451;SDS011;8843;48.838;9.324;2023-04-05T01:25:19;5.10;;;3.80;;
17451;SDS011;8843;48.838;9.324;2023-04-05T01:28:11;3.93;;;3.33;;
17451;SDS011;8843;48.838;9.324;2023-04-05T01:30:50;4.47;;;3.20;;
17451;SDS011;8843;48.838;9.324;2023-04-05T01:33:29;4.53;;;3.83;;
17451;SDS011;8843;48.838;9.324;2023-04-05T01:36:01;5.73;;;3.50;;
17451;SDS011;8843;48.838;9.324;2023-04-05T01:38:32;5.50;;;3.87;;
17451;SDS011;8843;48.838;9.324;2023-04-05T01:41:04;6.10;;;4.50;;
17451;SDS011;8843;48.838;9.324;2023-04-05T01:43:31;4.07;;;3.43;;
17451;SDS011;8843;48.838;9.324;2023-04-05T01:45:59;5.77;;;4.40;;
17451;SDS011;8843;48.838;9.324;2023-04-05T01:48:26;4.50;;;3.70;;
17451;SDS011;8843;48.838;9.324;2023-04-05T01:50:53;4.77;;;3.97;;
17451;SDS011;8843;48.838;9.324;2023-04-05T01:53:19;5.33;;;3.80;;
17451;SDS011;8843;48.838;9.324;2023-04-05T01:55:46;5.27;;;3.83;;
17451;SDS011;8843;48.838;9.324;2023-04-05T01:58:13;5.10;;;3.63;;
17451;SDS011;8843;48.838;9.324;2023-04-05T02:00:40;5.33;;;3.80;;
17451;SDS011;8843;48.838;9.324;2023-04-05T02:03:08;4.27;;;3.63;;
17451;SDS011;8843;48.838;9.324;2023-04-05T02:05:35;3.57;;;3.23;;
17451;SDS011;8843;48.838;9.324;2023-04-05T02:08:02;6.13;;;3.70;;
17451;SDS011;8843;48.838;9.324;2023-04-05T02:10:29;4.57;;;3.70;;
17451;SDS011;8843;48.838;9.324;2023-04-05T02:12:56;5.13;;;4.20;;
17451;SDS011;8843;48.838;9.324;2023-04-05T02:15:23;5.80;;;4.30;;
17451;SDS011;8843;48.838;9.324;2023-04-05T02:17:50;5.53;;;3.83;;
17451;SDS011;8843;48.838;9.324;2023-04-05T02:20:19;6.07;;;4.27;;
17451;SDS011;8843;48.838;9.324;2023-04-05T02:22:46;5.70;;;3.80;;
17451;SDS011;8843;48.838;9.324;2023-04-05T02:25:13;5.10;;;3.80;;
17451;SDS011;8843;48.838;9.324;2023-04-05T02:27:40;5.07;;;4.33;;
17451;SDS011;8843;48.838;9.324;2023-04-05T02:30:07;5.30;;;3.87;;
17451;SDS011;8843;48.838;9.324;2023-04-05T02:32:34;4.97;;;3.67;;
17451;SDS011;8843;48.838;9.324;2023-04-05T02:35:01;8.03;;;4.60;;
17451;SDS011;8843;48.838;9.324;2023-04-05T02:37:29;4.83;;;3.97;;
17451;SDS011;8843;48.838;9.324;2023-04-05T02:39:56;5.80;;;4.10;;
17451;SDS011;8843;48.838;9.324;2023-04-05T02:42:23;5.27;;;3.73;;
17451;SDS011;8843;48.838;9.324;2023-04-05T02:44:50;5.50;;;3.93;;
17451;SDS011;8843;48.838;9.324;2023-04-05T02:47:17;6.27;;;3.53;;
17451;SDS011;8843;48.838;9.324;2023-04-05T02:49:45;4.33;;;3.90;;
17451;SDS011;8843;48.838;9.324;2023-04-05T02:52:13;5.17;;;4.07;;
17451;SDS011;8843;48.838;9.324;2023-04-05T02:54:42;4.30;;;3.60;;
17451;SDS011;8843;48.838;9.324;2023-04-05T02:57:10;3.87;;;3.43;;
17451;SDS011;8843;48.838;9.324;2023-04-05T02:59:37;4.40;;;3.60;;
17451;SDS011;8843;48.838;9.324;2023-04-05T03:02:04;4.97;;;3.33;;
17451;SDS011;8843;48.838;9.324;2023-04-05T03:04:31;5.03;;;3.80;;
17451;SDS011;8843;48.838;9.324;2023-04-05T03:06:59;7.10;;;3.57;;
17451;SDS011;8843;48.838;9.324;2023-04-05T03:09:27;5.40;;;3.77;;
17451;SDS011;8843;48.838;9.324;2023-04-05T03:11:58;7.07;;;4.13;;
17451;SDS011;8843;48.838;9.324;2023-04-05T03:14:27;4.87;;;3.77;;
17451;SDS011;8843;48.838;9.324;2023-04-05T03:16:54;5.63;;;3.63;;
17451;SDS011;8843;48.838;9.324;2023-04-05T03:19:21;4.73;;;3.93;;
17451;SDS011;8843;48.838;9.324;2023-04-05T03:21:50;4.77;;;4.27;;
17451;SDS011;8843;48.838;9.324;2023-04-05T03:24:17;5.20;;;4.30;;
17451;SDS011;8843;48.838;9.324;2023-04-05T03:26:45;4.33;;;3.90;;
17451;SDS011;8843;48.838;9.324;2023-04-05T03:29:14;4.90;;;3.60;;
17451;SDS011;8843;48.838;9.324;2023-04-05T03:31:40;5.87;;;4.10;;
17451;SDS011;8843;48.838;9.324;2023-04-05T03:34:07;6.47;;;3.90;;
17451;SDS011;8843;48.838;9.324;2023-04-05T03:36:34;4.97;;;3.23;;
17451;SDS011;8843;48.838;9.324;2023-04-05T03:39:06;5.97;;;3.87;;
17451;SDS011;8843;48.838;9.324;2023-04-05T03:41:34;9.70;;;4.27;;
17451;SDS011;8843;48.838;9.324;2023-04-05T03:44:01;5.10;;;3.60;;
17451;SDS011;8843;48.838;9.324;2023-04-05T03:46:29;6.07;;;4.00;;
17451;SDS011;8843;48.838;9.324;2023-04-05T03:48:57;4.00;;;3.60;;
17451;SDS011;8843;48.838;9.324;2023-04-05T03:51:25;5.37;;;3.53;;
17451;SDS011;8843;48.838;9.324;2023-04-05T03:53:52;4.93;;;3.60;;
17451;SDS011;8843;48.838;9.324;2023-04-05T03:56:19;3.80;;;3.40;;
17451;SDS011;8843;48.838;9.324;2023-04-05T03:58:46;5.90;;;4.30;;
17451;SDS011;8843;48.838;9.324;2023-04-05T04:01:13;7.23;;;4.40;;
17451;SDS011;8843;48.838;9.324;2023-04-05T04:03:42;6.40;;;4.47;;
17451;SDS011;8843;48.838;9.324;2023-04-05T04:06:09;5.10;;;3.87;;
17451;SDS011;8843;48.838;9.324;2023-04-05T04:08:36;5.53;;;4.57;;
17451;SDS011;8843;48.838;9.324;2023-04-05T04:11:03;4.63;;;3.80;;
17451;SDS011;8843;48.838;9.324;2023-04-05T04:13:30;5.13;;;3.87;;
17451;SDS011;8843;48.838;9.324;2023-04-05T04:15:57;6.03;;;3.90;;
17451;SDS011;8843;48.838;9.324;2023-04-05T04:18:24;7.20;;;3.87;;
17451;SDS011;8843;48.838;9.324;2023-04-05T04:20:52;9.97;;;4.13;;
17451;SDS011;8843;48.838;9.324;2023-04-05T04:23:20;6.20;;;3.80;;
17451;SDS011;8843;48.838;9.324;2023-04-05T04:25:48;5.00;;;3.97;;
17451;SDS011;8843;48.838;9.324;2023-04-05T04:28:18;4.80;;;3.70;;
17451;SDS011;8843;48.838;9.324;2023-04-05T04:30:49;5.10;;;4.40;;
17451;SDS011;8843;48.838;9.324;2023-04-05T04:33:16;5.03;;;3.57;;
17451;SDS011;8843;48.838;9.324;2023-04-05T04:35:45;3.90;;;3.50;;
17451;SDS011;8843;48.838;9.324;2023-04-05T04:38:21;5.80;;;4.17;;
17451;SDS011;8843;48.838;9.324;2023-04-05T04:40:50;6.80;;;4.07;;
17451;SDS011;8843;48.838;9.324;2023-04-05T04:43:17;4.47;;;4.07;;
17451;SDS011;8843;48.838;9.324;2023-04-05T04:45:51;5.73;;;4.23;;
17451;SDS011;8843;48.838;9.324;2023-04-05T04:48:18;6.53;;;4.00;;
17451;SDS011;8843;48.838;9.324;2023-04-05T04:50:46;6.13;;;3.90;;
17451;SDS011;8843;48.838;9.324;2023-04-05T04:53:14;6.53;;;4.20;;
17451;SDS011;8843;48.838;9.324;2023-04-05T04:55:43;4.80;;;4.30;;
17451;SDS011;8843;48.838;9.324;2023-04-05T04:58:14;7.17;;;4.67;;
17451;SDS011;8843;48.838;9.324;2023-04-05T05:00:42;5.17;;;4.10;;
17451;SDS011;8843;48.838;9.324;2023-04-05T05:03:09;7.33;;;4.17;;
17451;SDS011;8843;48.838;9.324;2023-04-05T05:05:40;4.77;;;4.10;;
17451;SDS011;8843;48.838;9.324;2023-04-05T05:08:08;5.70;;;4.17;;
17451;SDS011;8843;48.838;9.324;2023-04-05T05:10:35;4.60;;;4.00;;
17451;SDS011;8843;48.838;9.324;2023-04-05T05:13:03;4.50;;;4.10;;
17451;SDS011;8843;48.838;9.324;2023-04-05T05:15:30;4.70;;;4.30;;
17451;SDS011;8843;48.838;9.324;2023-04-05T05:17:57;4.67;;;4.10;;
17451;SDS011;8843;48.838;9.324;2023-04-05T05:20:24;5.27;;;4.00;;
17451;SDS011;8843;48.838;9.324;2023-04-05T05:22:52;7.17;;;4.27;;
17451;SDS011;8843;48.838;9.324;2023-04-05T05:25:20;5.00;;;4.50;;
17451;SDS011;8843;48.838;9.324;2023-04-05T05:27:50;7.47;;;4.87;;
17451;SDS011;8843;48.838;9.324;2023-04-05T05:30:18;6.70;;;5.20;;
17451;SDS011;8843;48.838;9.324;2023-04-05T05:32:45;5.63;;;4.60;;
17451;SDS011;8843;48.838;9.324;2023-04-05T05:35:12;5.50;;;4.27;;
17451;SDS011;8843;48.838;9.324;2023-04-05T05:37:39;7.30;;;4.63;;
17451;SDS011;8843;48.838;9.324;2023-04-05T05:40:07;7.77;;;5.03;;
17451;SDS011;8843;48.838;9.324;2023-04-05T05:42:37;8.30;;;5.40;;
17451;SDS011;8843;48.838;9.324;2023-04-05T05:45:04;7.53;;;4.70;;
17451;SDS011;8843;48.838;9.324;2023-04-05T05:47:33;7.33;;;5.20;;
17451;SDS011;8843;48.838;9.324;2023-04-05T05:50:00;7.17;;;5.20;;
17451;SDS011;8843;48.838;9.324;2023-04-05T05:52:27;8.90;;;5.20;;
17451;SDS011;8843;48.838;9.324;2023-04-05T05:54:54;10.40;;;5.40;;
17451;SDS011;8843;48.838;9.324;2023-04-05T05:57:21;6.87;;;5.23;;
17451;SDS011;8843;48.838;9.324;2023-04-05T05:59:48;7.40;;;4.87;;
17451;SDS011;8843;48.838;9.324;2023-04-05T06:02:15;6.87;;;5.07;;
17451;SDS011;8843;48.838;9.324;2023-04-05T06:04:43;7.50;;;5.10;;
17451;SDS011;8843;48.838;9.324;2023-04-05T06:07:10;9.57;;;5.90;;
17451;SDS011;8843;48.838;9.324;2023-04-05T06:09:37;7.53;;;5.10;;
17451;SDS011;8843;48.838;9.324;2023-04-05T06:12:04;6.63;;;5.37;;
17451;SDS011;8843;48.838;9.324;2023-04-05T06:14:31;6.10;;;4.83;;
17451;SDS011;8843;48.838;9.324;2023-04-05T06:16:58;6.93;;;5.30;;
17451;SDS011;8843;48.838;9.324;2023-04-05T06:19:25;5.83;;;5.03;;
17451;SDS011;8843;48.838;9.324;2023-04-05T06:21:53;7.33;;;5.23;;
17451;SDS011;8843;48.838;9.324;2023-04-05T06:24:20;5.67;;;4.97;;
17451;SDS011;8843;48.838;9.324;2023-04-05T06:26:48;7.53;;;5.10;;
17451;SDS011;8843;48.838;9.324;2023-04-05T06:29:15;6.70;;;5.00;;
17451;SDS011;8843;48.838;9.324;2023-04-05T06:31:42;8.80;;;5.30;;
17451;SDS011;8843;48.838;9.324;2023-04-05T06:34:10;7.47;;;5.63;;
17451;SDS011;8843;48.838;9.324;2023-04-05T06:36:37;6.13;;;4.73;;
17451;SDS011;8843;48.838;9.324;2023-04-05T06:39:05;6.70;;;4.83;;
17451;SDS011;8843;48.838;9.324;2023-04-05T06:41:32;6.43;;;4.80;;
17451;SDS011;8843;48.838;9.324;2023-04-05T06:43:59;5.73;;;4.93;;
17451;SDS011;8843;48.838;9.324;2023-04-05T06:46:27;5.87;;;4.87;;
17451;SDS011;8843;48.838;9.324;2023-04-05T06:48:54;5.73;;;4.50;;
17451;SDS011;8843;48.838;9.324;2023-04-05T06:51:21;7.43;;;5.30;;
17451;SDS011;8843;48.838;9.324;2023-04-05T06:53:49;6.17;;;4.93;;
17451;SDS011;8843;48.838;9.324;2023-04-05T06:56:17;6.40;;;4.83;;
17451;SDS011;8843;48.838;9.324;2023-04-05T06:58:44;7.30;;;5.17;;
17451;SDS011;8843;48.838;9.324;2023-04-05T07:01:11;5.87;;;4.57;;
17451;SDS011;8843;48.838;9.324;2023-04-05T07:03:38;8.73;;;5.83;;
17451;SDS011;8843;48.838;9.324;2023-04-05T07:06:05;7.70;;;5.40;;
17451;SDS011;8843;48.838;9.324;2023-04-05T07:08:33;6.93;;;4.93;;
17451;SDS011;8843;48.838;9.324;2023-04-05T07:11:00;6.40;;;5.23;;
17451;SDS011;8843;48.838;9.324;2023-04-05T07:13:28;7.10;;;5.17;;
17451;SDS011;8843;48.838;9.324;2023-04-05T07:15:58;6.43;;;5.23;;
17451;SDS011;8843;48.838;9.324;2023-04-05T07:18:25;7.10;;;5.00;;
17451;SDS011;8843;48.838;9.324;2023-04-05T07:20:54;6.57;;;5.00;;
17451;SDS011;8843;48.838;9.324;2023-04-05T07:23:24;7.37;;;5.23;;
17451;SDS011;8843;48.838;9.324;2023-04-05T07:25:51;7.17;;;5.17;;
17451;SDS011;8843;48.838;9.324;2023-04-05T07:28:19;7.63;;;5.30;;
17451;SDS011;8843;48.838;9.324;2023-04-05T07:30:47;8.17;;;4.80;;
17451;SDS011;8843;48.838;9.324;2023-04-05T07:33:14;4.93;;;4.30;;
17451;SDS011;8843;48.838;9.324;2023-04-05T07:35:41;7.50;;;4.70;;
17451;SDS011;8843;48.838;9.324;2023-04-05T07:38:08;6.80;;;5.47;;
17451;SDS011;8843;48.838;9.324;2023-04-05T07:40:35;5.30;;;4.80;;
17451;SDS011;8843;48.838;9.324;2023-04-05T07:43:02;8.73;;;4.43;;
17451;SDS011;8843;48.838;9.324;2023-04-05T07:45:29;5.50;;;4.50;;
17451;SDS011;8843;48.838;9.324;2023-04-05T07:47:57;5.97;;;4.50;;
17451;SDS011;8843;48.838;9.324;2023-04-05T07:50:25;5.77;;;4.10;;
17451;SDS011;8843;48.838;9.324;2023-04-05T07:52:52;9.30;;;4.90;;
17451;SDS011;8843;48.838;9.324;2023-04-05T07:55:19;5.07;;;4.20;;
17451;SDS011;8843;48.838;9.324;2023-04-05T07:57:46;9.67;;;5.50;;
17451;SDS011;8843;48.838;9.324;2023-04-05T08:00:13;7.50;;;4.83;;
17451;SDS011;8843;48.838;9.324;2023-04-05T08:02:41;10.40;;;5.27;;
17451;SDS011;8843;48.838;9.324;2023-04-05T08:05:09;20.27;;;7.43;;
17451;SDS011;8843;48.838;9.324;2023-04-05T08:07:36;5.53;;;3.90;;
17451;SDS011;8843;48.838;9.324;2023-04-05T08:10:03;6.70;;;4.33;;
17451;SDS011;8843;48.838;9.324;2023-04-05T08:12:31;5.60;;;4.03;;
17451;SDS011;8843;48.838;9.324;2023-04-05T08:14:59;5.87;;;4.97;;
17451;SDS011;8843;48.838;9.324;2023-04-05T08:17:27;7.30;;;5.00;;
17451;SDS011;8843;48.838;9.324;2023-04-05T08:19:58;6.17;;;4.77;;
17451;SDS011;8843;48.838;9.324;2023-04-05T08:22:27;5.17;;;4.50;;
17451;SDS011;8843;48.838;9.324;2023-04-05T08:24:54;6.70;;;4.67;;
17451;SDS011;8843;48.838;9.324;2023-04-05T08:27:21;6.40;;;4.60;;
17451;SDS011;8843;48.838;9.324;2023-04-05T08:29:48;6.17;;;4.47;;
17451;SDS011;8843;48.838;9.324;2023-04-05T08:32:15;8.13;;;4.43;;
17451;SDS011;8843;48.838;9.324;2023-04-05T08:34:42;9.27;;;4.80;;
17451;SDS011;8843;48.838;9.324;2023-04-05T08:37:09;6.17;;;4.03;;
17451;SDS011;8843;48.838;9.324;2023-04-05T08:39:37;6.07;;;4.33;;
17451;SDS011;8843;48.838;9.324;2023-04-05T08:42:07;5.43;;;4.00;;
17451;SDS011;8843;48.838;9.324;2023-04-05T08:44:37;5.93;;;4.37;;
17451;SDS011;8843;48.838;9.324;2023-04-05T08:47:06;4.20;;;3.80;;
17451;SDS011;8843;48.838;9.324;2023-04-05T08:49:41;7.23;;;4.40;;
17451;SDS011;8843;48.838;9.324;2023-04-05T08:52:08;4.83;;;4.33;;
17451;SDS011;8843;48.838;9.324;2023-04-05T08:54:36;6.40;;;4.27;;
17451;SDS011;8843;48.838;9.324;2023-04-05T08:57:03;5.67;;;4.63;;
17451;SDS011;8843;48.838;9.324;2023-04-05T08:59:32;5.03;;;4.53;;
17451;SDS011;8843;48.838;9.324;2023-04-05T09:02:03;5.43;;;4.27;;
17451;SDS011;8843;48.838;9.324;2023-04-05T09:04:34;6.67;;;4.03;;
17451;SDS011;8843;48.838;9.324;2023-04-05T09:07:05;4.83;;;4.00;;
17451;SDS011;8843;48.838;9.324;2023-04-05T09:09:34;6.63;;;4.43;;
17451;SDS011;8843;48.838;9.324;2023-04-05T09:12:03;4.43;;;4.03;;
17451;SDS011;8843;48.838;9.324;2023-04-05T09:14:32;4.83;;;4.03;;
17451;SDS011;8843;48.838;9.324;2023-04-05T09:17:00;7.97;;;4.23;;
17451;SDS011;8843;48.838;9.324;2023-04-05T09:19:27;5.87;;;4.43;;
17451;SDS011;8843;48.838;9.324;2023-04-05T09:21:58;4.70;;;4.30;;
17451;SDS011;8843;48.838;9.324;2023-04-05T09:24:29;4.93;;;4.00;;
17451;SDS011;8843;48.838;9.324;2023-04-05T09:27:09;4.40;;;4.00;;
17451;SDS011;8843;48.838;9.324;2023-04-05T09:29:37;5.70;;;3.90;;
17451;SDS011;8843;48.838;9.324;2023-04-05T09:32:05;5.20;;;4.07;;
17451;SDS011;8843;48.838;9.324;2023-04-05T09:34:33;4.87;;;4.20;;
17451;SDS011;8843;48.838;9.324;2023-04-05T09:37:02;6.13;;;4.40;;
17451;SDS011;8843;48.838;9.324;2023-04-05T09:39:37;5.80;;;3.77;;
17451;SDS011;8843;48.838;9.324;2023-04-05T09:42:05;4.93;;;4.07;;
17451;SDS011;8843;48.838;9.324;2023-04-05T09:44:53;5.07;;;4.27;;
17451;SDS011;8843;48.838;9.324;2023-04-05T09:47:21;5.17;;;4.00;;
17451;SDS011;8843;48.838;9.324;2023-04-05T09:49:51;4.67;;;3.60;;
17451;SDS011;8843;48.838;9.324;2023-04-05T09:52:19;6.33;;;4.40;;
17451;SDS011;8843;48.838;9.324;2023-04-05T09:54:47;4.07;;;3.67;;
17451;SDS011;8843;48.838;9.324;2023-04-05T09:57:15;4.17;;;3.60;;
17451;SDS011;8843;48.838;9.324;2023-04-05T09:59:43;5.10;;;4.07;;
17451;SDS011;8843;48.838;9.324;2023-04-05T10:02:11;4.47;;;3.30;;
17451;SDS011;8843;48.838;9.324;2023-04-05T10:04:38;3.83;;;3.43;;
17451;SDS011;8843;48.838;9.324;2023-04-05T10:07:06;5.33;;;3.40;;
17451;SDS011;8843;48.838;9.324;2023-04-05T10:09:35;5.60;;;3.30;;
17451;SDS011;8843;48.838;9.324;2023-04-05T10:12:02;7.07;;;3.20;;
17451;SDS011;8843;48.838;9.324;2023-04-05T10:14:31;4.53;;;3.10;;
17451;SDS011;8843;48.838;9.324;2023-04-05T10:16:59;6.03;;;3.60;;
17451;SDS011;8843;48.838;9.324;2023-04-05T10:19:49;3.67;;;3.00;;
17451;SDS011;8843;48.838;9.324;2023-04-05T10:22:23;5.60;;;3.37;;
17451;SDS011;8843;48.838;9.324;2023-04-05T10:24:56;5.63;;;3.70;;
17451;SDS011;8843;48.838;9.324;2023-04-05T10:27:31;4.80;;;3.33;;
17451;SDS011;8843;48.838;9.324;2023-04-05T10:30:03;4.73;;;3.03;;
17451;SDS011;8843;48.838;9.324;2023-04-05T10:35:34;4.67;;;3.73;;
17451;SDS011;8843;48.838;9.324;2023-04-05T10:38:11;7.00;;;3.93;;
17451;SDS011;8843;48.838;9.324;2023-04-05T10:40:43;4.20;;;3.53;;
17451;SDS011;8843;48.838;9.324;2023-04-05T10:43:14;3.97;;;3.23;;
17451;SDS011;8843;48.838;9.324;2023-04-05T10:45:44;6.47;;;3.60;;
17451;SDS011;8843;48.838;9.324;2023-04-05T10:48:17;3.87;;;3.17;;
17451;SDS011;8843;48.838;9.324;2023-04-05T10:50:54;3.77;;;3.37;;
17451;SDS011;8843;48.838;9.324;2023-04-05T10:53:23;3.57;;;3.23;;
17451;SDS011;8843;48.838;9.324;2023-04-05T10:55:51;3.30;;;3.10;;
17451;SDS011;8843;48.838;9.324;2023-04-05T10:58:20;5.47;;;4.00;;
17451;SDS011;8843;48.838;9.324;2023-04-05T11:00:49;4.67;;;3.37;;
17451;SDS011;8843;48.838;9.324;2023-04-05T11:06:21;4.57;;;3.67;;
17451;SDS011;8843;48.838;9.324;2023-04-05T11:08:57;4.20;;;3.83;;
17451;SDS011;8843;48.838;9.324;2023-04-05T11:11:37;6.97;;;4.60;;
17451;SDS011;8843;48.838;9.324;2023-04-05T11:14:15;5.57;;;3.73;;
17451;SDS011;8843;48.838;9.324;2023-04-05T11:16:45;5.33;;;3.63;;
17451;SDS011;8843;48.838;9.324;2023-04-05T11:19:16;4.33;;;3.30;;
17451;SDS011;8843;48.838;9.324;2023-04-05T11:21:43;6.43;;;4.13;;
17451;SDS011;8843;48.838;9.324;2023-04-05T11:24:10;5.00;;;3.90;;
17451;SDS011;8843;48.838;9.324;2023-04-05T11:26:52;4.87;;;3.57;;
17451;SDS011;8843;48.838;9.324;2023-04-05T11:32:14;4.77;;;3.40;;
17451;SDS011;8843;48.838;9.324;2023-04-05T11:34:43;5.90;;;3.67;;
17451;SDS011;8843;48.838;9.324;2023-04-05T11:37:22;5.27;;;4.27;;
17451;SDS011;8843;48.838;9.324;2023-04-05T11:39:49;5.97;;;3.57;;
17451;SDS011;8843;48.838;9.324;2023-04-05T11:42:58;4.03;;;3.63;;
17451;SDS011;8843;48.838;9.324;2023-04-05T11:45:28;5.20;;;3.87;;
17451;SDS011;8843;48.838;9.324;2023-04-05T11:47:56;4.67;;;4.07;;
17451;SDS011;8843;48.838;9.324;2023-04-05T11:50:25;3.97;;;3.50;;
17451;SDS011;8843;48.838;9.324;2023-04-05T11:53:09;5.30;;;3.87;;
17451;SDS011;8843;48.838;9.324;2023-04-05T11:55:36;5.07;;;3.10;;
17451;SDS011;8843;48.838;9.324;2023-04-05T11:58:10;11.30;;;3.87;;
17451;SDS011;8843;48.838;9.324;2023-04-05T12:00:38;6.83;;;3.93;;
17451;SDS011;8843;48.838;9.324;2023-04-05T12:03:05;5.77;;;3.90;;
17451;SDS011;8843;48.838;9.324;2023-04-05T12:05:49;4.43;;;4.03;;
17451;SDS011;8843;48.838;9.324;2023-04-05T12:08:17;3.70;;;3.30;;
17451;SDS011;8843;48.838;9.324;2023-04-05T12:10:44;3.87;;;3.37;;
17451;SDS011;8843;48.838;9.324;2023-04-05T12:13:24;4.37;;;3.70;;
17451;SDS011;8843;48.838;9.324;2023-04-05T12:15:52;4.50;;;3.90;;
17451;SDS011;8843;48.838;9.324;2023-04-05T12:18:19;5.33;;;4.00;;
17451;SDS011;8843;48.838;9.324;2023-04-05T12:20:46;5.17;;;3.80;;
17451;SDS011;8843;48.838;9.324;2023-04-05T12:23:14;3.87;;;3.47;;
17451;SDS011;8843;48.838;9.324;2023-04-05T12:25:44;4.13;;;3.73;;
17451;SDS011;8843;48.838;9.324;2023-04-05T12:28:12;5.67;;;4.27;;
17451;SDS011;8843;48.838;9.324;2023-04-05T12:30:47;5.83;;;3.77;;
17451;SDS011;8843;48.838;9.324;2023-04-05T12:33:14;5.10;;;3.90;;
17451;SDS011;8843;48.838;9.324;2023-04-05T12:35:41;4.40;;;4.00;;
17451;SDS011;8843;48.838;9.324;2023-04-05T12:38:08;5.23;;;3.73;;
17451;SDS011;8843;48.838;9.324;2023-04-05T12:40:36;5.03;;;3.80;;
17451;SDS011;8843;48.838;9.324;2023-04-05T12:43:06;6.87;;;3.23;;
17451;SDS011;8843;48.838;9.324;2023-04-05T12:45:34;4.97;;;3.73;;
17451;SDS011;8843;48.838;9.324;2023-04-05T12:48:06;5.37;;;3.70;;
17451;SDS011;8843;48.838;9.324;2023-04-05T12:50:35;3.77;;;3.40;;
17451;SDS011;8843;48.838;9.324;2023-04-05T12:53:06;4.20;;;3.40;;
17451;SDS011;8843;48.838;9.324;2023-04-05T12:55:41;4.97;;;3.43;;
17451;SDS011;8843;48.838;9.324;2023-04-05T12:58:12;4.63;;;3.63;;
17451;SDS011;8843;48.838;9.324;2023-04-05T13:00:41;4.57;;;3.63;;
17451;SDS011;8843;48.838;9.324;2023-04-05T13:03:13;4.10;;;3.60;;
17451;SDS011;8843;48.838;9.324;2023-04-05T13:05:42;4.07;;;3.67;;
17451;SDS011;8843;48.838;9.324;2023-04-05T13:08:08;3.43;;;3.13;;
17451;SDS011;8843;48.838;9.324;2023-04-05T13:10:35;4.50;;;4.00;;
17451;SDS011;8843;48.838;9.324;2023-04-05T13:13:03;6.10;;;3.80;;
17451;SDS011;8843;48.838;9.324;2023-04-05T13:15:30;4.17;;;3.63;;
17451;SDS011;8843;48.838;9.324;2023-04-05T13:17:57;4.10;;;3.60;;
17451;SDS011;8843;48.838;9.324;2023-04-05T13:20:24;7.07;;;3.63;;
17451;SDS011;8843;48.838;9.324;2023-04-05T13:22:51;5.30;;;3.67;;
17451;SDS011;8843;48.838;9.324;2023-04-05T13:25:18;3.97;;;3.60;;
17451;SDS011;8843;48.838;9.324;2023-04-05T13:27:47;5.03;;;3.93;;
17451;SDS011;8843;48.838;9.324;2023-04-05T13:30:14;3.77;;;3.37;;
17451;SDS011;8843;48.838;9.324;2023-04-05T13:32:41;3.97;;;3.63;;
17451;SDS011;8843;48.838;9.324;2023-04-05T13:35:08;5.67;;;3.83;;
17451;SDS011;8843;48.838;9.324;2023-04-05T13:37:35;4.83;;;3.70;;
17451;SDS011;8843;48.838;9.324;2023-04-05T13:40:03;4.23;;;3.83;;
17451;SDS011;8843;48.838;9.324;2023-04-05T13:42:30;4.53;;;3.50;;
17451;SDS011;8843;48.838;9.324;2023-04-05T13:44:59;4.80;;;4.00;;
17451;SDS011;8843;48.838;9.324;2023-04-05T13:47:26;4.10;;;3.70;;
17451;SDS011;8843;48.838;9.324;2023-04-05T13:49:52;4.40;;;4.00;;
17451;SDS011;8843;48.838;9.324;2023-04-05T13:52:19;5.80;;;3.40;;
17451;SDS011;8843;48.838;9.324;2023-04-05T13:54:46;4.30;;;3.23;;
17451;SDS011;8843;48.838;9.324;2023-04-05T13:57:13;3.77;;;3.47;;
17451;SDS011;8843;48.838;9.324;2023-04-05T13:59:40;6.10;;;3.53;;
17451;SDS011;8843;48.838;9.324;2023-04-05T14:02:08;4.43;;;3.03;;
17451;SDS011;8843;48.838;9.324;2023-04-05T14:04:36;3.97;;;2.87;;
17451;SDS011;8843;48.838;9.324;2023-04-05T14:07:03;4.10;;;3.13;;
17451;SDS011;8843;48.838;9.324;2023-04-05T14:09:30;4.70;;;3.50;;
17451;SDS011;8843;48.838;9.324;2023-04-05T14:11:57;3.77;;;3.47;;
17451;SDS011;8843;48.838;9.324;2023-04-05T14:14:25;3.83;;;3.47;;
17451;SDS011;8843;48.838;9.324;2023-04-05T14:16:52;6.40;;;3.87;;
17451;SDS011;8843;48.838;9.324;2023-04-05T14:19:21;4.50;;;3.37;;
17451;SDS011;8843;48.838;9.324;2023-04-05T14:21:47;6.67;;;4.10;;
17451;SDS011;8843;48.838;9.324;2023-04-05T14:24:15;7.03;;;4.67;;
17451;SDS011;8843;48.838;9.324;2023-04-05T14:26:42;4.27;;;3.70;;
17451;SDS011;8843;48.838;9.324;2023-04-05T14:29:13;4.73;;;4.03;;
17451;SDS011;8843;48.838;9.324;2023-04-05T14:31:40;6.33;;;3.90;;
17451;SDS011;8843;48.838;9.324;2023-04-05T14:34:07;5.13;;;3.77;;
17451;SDS011;8843;48.838;9.324;2023-04-05T14:36:37;4.03;;;3.10;;
17451;SDS011;8843;48.838;9.324;2023-04-05T14:39:04;3.90;;;3.20;;
17451;SDS011;8843;48.838;9.324;2023-04-05T14:41:31;4.27;;;3.30;;
17451;SDS011;8843;48.838;9.324;2023-04-05T14:43:59;3.77;;;2.97;;
17451;SDS011;8843;48.838;9.324;2023-04-05T14:46:26;4.47;;;3.63;;
17451;SDS011;8843;48.838;9.324;2023-04-05T14:48:53;5.00;;;3.90;;
17451;SDS011;8843;48.838;9.324;2023-04-05T14:51:20;3.90;;;3.50;;
17451;SDS011;8843;48.838;9.324;2023-04-05T14:53:48;4.73;;;3.70;;
17451;SDS011;8843;48.838;9.324;2023-04-05T14:56:16;3.50;;;3.20;;
17451;SDS011;8843;48.838;9.324;2023-04-05T14:58:43;6.90;;;3.60;;
17451;SDS011;8843;48.838;9.324;2023-04-05T15:01:10;4.20;;;3.13;;
17451;SDS011;8843;48.838;9.324;2023-04-05T15:03:37;3.90;;;3.50;;
17451;SDS011;8843;48.838;9.324;2023-04-05T15:06:04;6.00;;;3.30;;
17451;SDS011;8843;48.838;9.324;2023-04-05T15:08:32;4.43;;;3.27;;
17451;SDS011;8843;48.838;9.324;2023-04-05T15:11:00;3.17;;;2.93;;
17451;SDS011;8843;48.838;9.324;2023-04-05T15:13:27;4.37;;;2.90;;
17451;SDS011;8843;48.838;9.324;2023-04-05T15:15:54;3.33;;;2.97;;
17451;SDS011;8843;48.838;9.324;2023-04-05T15:18:21;5.67;;;3.17;;
17451;SDS011;8843;48.838;9.324;2023-04-05T15:20:48;3.60;;;3.20;;